createdAt,value
2022-09-07T00:11:39.725Z,19.25
2022-09-07T00:12:00.771Z,19.25
2022-09-07T00:12:21.825Z,19.25
2022-09-07T00:12:42.875Z,19.25
2022-09-07T00:13:03.969Z,19.26
2022-09-07T00:13:25.029Z,19.26
2022-09-07T00:13:46.106Z,19.27
2022-09-07T00:14:07.134Z,19.28
2022-09-07T00:14:28.185Z,19.28
2022-09-07T00:14:49.237Z,19.28
2022-09-07T01:04:15.496Z,19.09
2022-09-07T01:04:36.544Z,19.09
2022-09-07T01:04:57.598Z,19.09
2022-09-07T01:05:18.657Z,19.09
2022-09-07T01:05:39.714Z,19.09
2022-09-07T01:06:00.799Z,19.10
2022-09-07T01:06:21.852Z,19.10
2022-09-07T01:06:42.892Z,19.10
2022-09-07T01:07:03.951Z,19.10
2022-09-07T01:07:24.995Z,19.10
2022-09-07T01:07:46.048Z,19.11
2022-09-07T01:08:07.108Z,19.10
2022-09-07T01:08:28.210Z,19.11
2022-09-07T01:08:49.259Z,19.11
2022-09-07T01:09:10.310Z,19.11
2022-09-07T01:09:31.361Z,19.11
2022-09-07T01:09:52.415Z,19.10
2022-09-07T01:10:13.475Z,19.11
2022-09-07T01:10:34.516Z,19.11
2022-09-07T01:10:55.570Z,19.11
2022-09-07T01:11:16.747Z,19.12
2022-09-07T01:11:37.798Z,19.12
2022-09-07T01:11:58.851Z,19.13
2022-09-07T01:12:19.901Z,19.12
2022-09-07T01:12:40.946Z,19.13
2022-09-07T01:13:01.990Z,19.13
2022-09-07T01:13:23.045Z,19.14
2022-09-07T01:13:44.104Z,19.14
2022-09-07T01:14:05.163Z,19.15
2022-09-07T01:14:26.218Z,19.15
2022-09-07T01:14:47.277Z,19.14
2022-09-07T01:15:08.323Z,19.15
2022-09-07T01:15:29.377Z,19.15
2022-09-07T01:15:50.533Z,19.16
2022-09-07T01:16:11.735Z,19.17
2022-09-07T01:16:32.940Z,19.17
2022-09-07T01:16:53.991Z,19.18
2022-09-07T01:17:15.042Z,19.18
2022-09-07T01:17:36.091Z,19.18
2022-09-07T01:17:57.142Z,19.19
2022-09-07T01:18:18.212Z,19.20
2022-09-07T01:18:39.260Z,19.19
2022-09-07T01:19:00.313Z,19.20
2022-09-07T01:19:21.366Z,19.21
2022-09-07T01:19:42.413Z,19.20
2022-09-07T01:20:03.463Z,19.20
2022-09-07T01:20:24.525Z,19.21
2022-09-07T01:20:45.587Z,19.22
2022-09-07T01:21:06.640Z,19.21
2022-09-07T01:21:27.715Z,19.22
2022-09-07T01:21:48.888Z,19.22
2022-09-07T01:22:09.944Z,19.22
2022-09-07T01:22:30.985Z,19.22
2022-09-07T01:22:52.045Z,19.22
2022-09-07T01:23:13.095Z,19.23
2022-09-07T01:23:34.147Z,19.23
2022-09-07T01:23:55.194Z,19.23
2022-09-07T01:24:16.254Z,19.24
2022-09-07T01:24:37.302Z,19.24
2022-09-07T01:24:58.352Z,19.24
2022-09-07T01:25:19.395Z,19.25
2022-09-07T01:25:40.449Z,19.24
2022-09-07T01:26:01.500Z,19.24
2022-09-07T01:26:22.557Z,19.25
2022-09-07T01:26:43.603Z,19.24
2022-09-07T01:27:04.673Z,19.25
2022-09-07T01:27:25.721Z,19.25
2022-09-07T01:27:46.769Z,19.25
2022-09-07T01:28:07.820Z,19.25
2022-09-07T01:28:28.953Z,19.25
2022-09-07T01:28:50.063Z,19.25
2022-09-07T01:29:11.113Z,19.25
2022-09-07T01:29:32.164Z,19.25
2022-09-07T01:29:53.213Z,19.24
2022-09-07T01:30:14.264Z,19.25
2022-09-07T01:30:35.321Z,19.24
2022-09-07T01:30:56.421Z,19.25
2022-09-07T01:31:17.494Z,19.25
2022-09-07T01:31:38.513Z,19.25
2022-09-07T01:31:59.702Z,19.26
2022-09-07T01:32:20.748Z,19.26
2022-09-07T01:32:41.796Z,19.25
2022-09-07T01:33:02.844Z,19.26
2022-09-07T01:33:23.894Z,19.26
2022-09-07T01:33:44.944Z,19.26
2022-09-07T01:34:05.990Z,19.27
2022-09-07T01:34:27.042Z,19.27
2022-09-07T01:34:48.092Z,19.26
2022-09-07T01:35:09.135Z,19.27
2022-09-07T01:35:30.182Z,19.27
2022-09-07T01:35:51.234Z,19.27
2022-09-07T01:36:12.288Z,19.28
2022-09-07T01:36:33.340Z,19.28
2022-09-07T01:36:54.394Z,19.28
2022-09-07T01:37:15.563Z,19.28
2022-09-07T01:37:36.621Z,19.29
2022-09-07T01:37:57.677Z,19.28
2022-09-07T01:38:18.721Z,19.29
2022-09-07T01:38:39.779Z,19.29
2022-09-07T01:39:00.824Z,19.29
2022-09-07T01:39:21.874Z,19.29
2022-09-07T01:39:42.989Z,19.29
2022-09-07T01:40:04.112Z,19.30
2022-09-07T01:40:25.133Z,19.29
2022-09-07T01:40:46.180Z,19.29
2022-09-07T01:41:07.230Z,19.30
2022-09-07T01:41:28.288Z,19.30
2022-09-07T01:41:49.341Z,19.31
2022-09-07T01:42:10.385Z,19.31
2022-09-07T01:42:31.450Z,19.31
2022-09-07T01:42:52.498Z,19.32
2022-09-07T01:43:13.558Z,19.31
2022-09-07T01:43:34.608Z,19.31
2022-09-07T01:43:55.657Z,19.32
2022-09-07T01:44:16.709Z,19.32
2022-09-07T01:44:37.761Z,19.32
2022-09-07T01:44:58.812Z,19.32
2022-09-07T01:45:19.862Z,19.32
2022-09-07T01:45:40.918Z,19.32
2022-09-07T01:46:02.025Z,19.32
2022-09-07T01:46:23.147Z,19.33
2022-09-07T01:46:44.266Z,19.32
2022-09-07T01:47:05.304Z,19.33
2022-09-07T01:47:26.350Z,19.32
2022-09-07T01:47:47.528Z,19.33
2022-09-07T01:48:08.574Z,19.33
2022-09-07T01:48:29.743Z,19.33
2022-09-07T01:48:50.752Z,19.32
2022-09-07T01:49:11.813Z,19.33
2022-09-07T01:49:32.856Z,19.32
2022-09-07T01:49:53.909Z,19.33
2022-09-07T01:50:14.963Z,19.32
2022-09-07T01:50:36.011Z,19.33
2022-09-07T01:50:57.059Z,19.34
2022-09-07T01:51:18.107Z,19.34
2022-09-07T01:51:39.161Z,19.34
2022-09-07T01:52:00.219Z,19.34
2022-09-07T01:52:21.271Z,19.34
2022-09-07T01:52:42.327Z,19.35
2022-09-07T01:53:03.519Z,19.34
2022-09-07T01:53:24.567Z,19.34
2022-09-07T01:53:45.625Z,19.34
2022-09-07T01:54:06.674Z,19.34
2022-09-07T01:54:27.734Z,19.34
2022-09-07T01:54:48.802Z,19.34
2022-09-07T01:55:09.857Z,19.34
2022-09-07T01:55:30.912Z,19.34
2022-09-07T01:55:51.960Z,19.34
2022-09-07T01:56:13.015Z,19.33
2022-09-07T01:56:34.068Z,19.34
2022-09-07T01:56:55.117Z,19.33
2022-09-07T01:57:16.181Z,19.32
2022-09-07T01:57:37.229Z,19.33
2022-09-07T01:57:58.289Z,19.32
2022-09-07T01:58:19.358Z,19.33
2022-09-07T01:58:40.404Z,19.32
2022-09-07T01:59:01.457Z,19.32
2022-09-07T01:59:22.506Z,19.32
2022-09-07T01:59:43.562Z,19.32
2022-09-07T02:00:04.615Z,19.32
2022-09-07T02:00:25.668Z,19.32
2022-09-07T02:00:46.718Z,19.33
2022-09-07T02:01:07.770Z,19.32
2022-09-07T02:01:28.847Z,19.32
2022-09-07T02:01:49.928Z,19.33
2022-09-07T02:02:10.963Z,19.33
2022-09-07T02:02:32.058Z,19.32
2022-09-07T02:02:53.118Z,19.33
2022-09-07T02:03:14.148Z,19.32
2022-09-07T02:03:35.325Z,19.32
2022-09-07T02:03:56.367Z,19.33
2022-09-07T02:04:17.417Z,19.32
2022-09-07T02:04:38.471Z,19.32
2022-09-07T02:04:59.519Z,19.33
2022-09-07T02:05:20.568Z,19.32
2022-09-07T02:05:41.619Z,19.32
2022-09-07T02:06:02.670Z,19.32
2022-09-07T02:06:23.730Z,19.32
2022-09-07T02:06:44.784Z,19.32
2022-09-07T02:07:05.830Z,19.32
2022-09-07T02:07:26.878Z,19.33
2022-09-07T02:07:47.929Z,19.32
2022-09-07T02:08:08.978Z,19.33
2022-09-07T02:08:30.209Z,19.33
2022-09-07T02:08:51.278Z,19.32
2022-09-07T02:09:12.344Z,19.33
2022-09-07T02:09:33.399Z,19.32
2022-09-07T02:09:54.452Z,19.32
2022-09-07T02:10:15.498Z,19.32
2022-09-07T02:10:36.549Z,19.32
2022-09-07T02:10:57.607Z,19.33
2022-09-07T02:11:18.659Z,19.32
2022-09-07T02:11:39.706Z,19.32
2022-09-07T02:12:00.756Z,19.33
2022-09-07T02:12:21.812Z,19.33
2022-09-07T02:12:42.866Z,19.33
2022-09-07T02:13:03.916Z,19.32
2022-09-07T02:13:24.971Z,19.34
2022-09-07T02:13:46.018Z,19.33
2022-09-07T02:14:07.188Z,19.33
2022-09-07T02:14:28.245Z,19.32
2022-09-07T02:14:52.492Z,19.33
2022-09-07T02:15:13.864Z,19.33
2022-09-07T02:15:34.960Z,19.32
2022-09-07T02:15:56.080Z,19.33
2022-09-07T02:16:17.176Z,19.33
2022-09-07T02:16:38.206Z,19.33
2022-09-07T02:16:59.253Z,19.33
2022-09-07T02:17:20.304Z,19.34
2022-09-07T02:17:41.352Z,19.34
2022-09-07T02:18:02.407Z,19.34
2022-09-07T02:18:23.464Z,19.35
2022-09-07T02:18:44.515Z,19.34
2022-09-07T02:19:05.563Z,19.34
2022-09-07T02:19:26.624Z,19.35
2022-09-07T02:19:47.674Z,19.34
2022-09-07T02:20:08.723Z,19.34
2022-09-07T02:20:29.785Z,19.34
2022-09-07T02:20:50.829Z,19.34
2022-09-07T02:21:11.879Z,19.34
2022-09-07T02:21:32.934Z,19.33
2022-09-07T02:21:53.976Z,19.35
2022-09-07T02:22:15.028Z,19.33
2022-09-07T02:22:36.082Z,19.33
2022-09-07T02:22:57.133Z,19.34
2022-09-07T02:23:18.184Z,19.34
2022-09-07T02:23:39.237Z,19.34
2022-09-07T02:24:00.288Z,19.34
2022-09-07T02:24:21.333Z,19.33
2022-09-07T02:24:42.505Z,19.34
2022-09-07T02:25:03.557Z,19.34
2022-09-07T02:25:24.605Z,19.33
2022-09-07T02:25:45.657Z,19.34
2022-09-07T02:26:06.709Z,19.34
2022-09-07T02:26:27.755Z,19.33
2022-09-07T02:26:48.809Z,19.34
2022-09-07T02:27:09.860Z,19.32
2022-09-07T02:27:30.907Z,19.32
2022-09-07T02:27:51.961Z,19.32
2022-09-07T02:28:13.006Z,19.32
2022-09-07T02:28:34.061Z,19.31
2022-09-07T02:28:55.104Z,19.31
2022-09-07T02:29:16.163Z,19.32
2022-09-07T02:29:37.211Z,19.31
2022-09-07T02:29:58.391Z,19.31
2022-09-07T02:30:19.442Z,19.31
2022-09-07T02:30:40.562Z,19.30
2022-09-07T02:31:01.748Z,19.30
2022-09-07T02:31:22.897Z,19.30
2022-09-07T02:31:44.031Z,19.30
2022-09-07T02:32:05.079Z,19.29
2022-09-07T02:32:26.129Z,19.30
2022-09-07T02:32:47.192Z,19.29
2022-09-07T02:33:08.241Z,19.29
2022-09-07T02:33:29.289Z,19.29
2022-09-07T02:33:50.334Z,19.28
2022-09-07T02:34:11.387Z,19.29
2022-09-07T02:34:32.441Z,19.29
2022-09-07T02:34:53.495Z,19.29
2022-09-07T02:35:14.658Z,19.30
2022-09-07T02:35:35.710Z,19.29
2022-09-07T02:35:56.768Z,19.30
2022-09-07T02:36:17.811Z,19.29
2022-09-07T02:36:38.861Z,19.30
2022-09-07T02:36:59.911Z,19.30
2022-09-07T02:37:20.959Z,19.30
2022-09-07T02:37:42.011Z,19.31
2022-09-07T02:38:03.067Z,19.31
2022-09-07T02:38:24.115Z,19.31
2022-09-07T02:38:45.168Z,19.32
2022-09-07T02:39:06.226Z,19.31
2022-09-07T02:39:27.330Z,19.32
2022-09-07T02:39:48.400Z,19.32
2022-09-07T02:40:09.558Z,19.32
2022-09-07T02:40:30.706Z,19.32
2022-09-07T02:40:51.768Z,19.32
2022-09-07T02:41:12.817Z,19.33
2022-09-07T02:41:33.876Z,19.33
2022-09-07T02:41:54.926Z,19.34
2022-09-07T02:42:15.990Z,19.34
2022-09-07T02:42:37.065Z,19.34
2022-09-07T02:42:58.119Z,19.34
2022-09-07T02:43:19.169Z,19.35
2022-09-07T02:43:40.221Z,19.35
2022-09-07T02:44:01.271Z,19.35
2022-09-07T02:44:22.322Z,19.35
2022-09-07T02:44:43.370Z,19.35
2022-09-07T02:45:04.422Z,19.36
2022-09-07T02:45:25.469Z,19.36
2022-09-07T02:45:46.579Z,19.36
2022-09-07T02:46:07.765Z,19.36
2022-09-07T02:46:28.861Z,19.36
2022-09-07T02:46:49.887Z,19.37
2022-09-07T02:47:10.936Z,19.37
2022-09-07T02:47:31.996Z,19.37
2022-09-07T02:47:53.039Z,19.38
2022-09-07T02:48:14.092Z,19.38
2022-09-07T02:48:35.152Z,19.38
2022-09-07T02:48:56.204Z,19.37
2022-09-07T02:49:17.259Z,19.39
2022-09-07T02:49:38.320Z,19.38
2022-09-07T02:49:59.379Z,19.39
2022-09-07T02:50:20.433Z,19.38
2022-09-07T02:50:41.481Z,19.39
2022-09-07T02:51:02.656Z,19.39
2022-09-07T02:51:23.726Z,19.39
2022-09-07T02:51:44.755Z,19.40
2022-09-07T02:52:05.811Z,19.39
2022-09-07T02:52:26.861Z,19.40
2022-09-07T02:52:47.903Z,19.41
2022-09-07T02:53:08.950Z,19.41
2022-09-07T02:53:30.010Z,19.41
2022-09-07T02:53:51.054Z,19.41
2022-09-07T02:54:12.115Z,19.41
2022-09-07T02:54:33.153Z,19.41
2022-09-07T02:54:54.225Z,19.41
2022-09-07T02:55:15.280Z,19.41
2022-09-07T02:55:36.337Z,19.41
2022-09-07T02:55:57.391Z,19.42
2022-09-07T02:56:18.438Z,19.41
2022-09-07T02:56:39.488Z,19.41
2022-09-07T02:57:00.543Z,19.41
2022-09-07T02:57:21.587Z,19.41
2022-09-07T02:57:42.642Z,19.41
2022-09-07T02:58:03.687Z,19.40
2022-09-07T02:58:24.788Z,19.41
2022-09-07T02:58:45.801Z,19.40
2022-09-07T02:59:06.857Z,19.39
2022-09-07T02:59:27.912Z,19.39
2022-09-07T02:59:48.975Z,19.39
2022-09-07T03:00:10.163Z,19.38
2022-09-07T03:00:31.208Z,19.38
2022-09-07T03:00:52.263Z,19.38
2022-09-07T03:01:13.386Z,19.38
2022-09-07T03:01:34.506Z,19.37
2022-09-07T03:01:55.577Z,19.36
2022-09-07T03:02:16.665Z,19.37
2022-09-07T03:02:37.747Z,19.36
2022-09-07T03:02:58.823Z,19.36
2022-09-07T03:03:19.840Z,19.36
2022-09-07T03:03:40.896Z,19.36
2022-09-07T03:04:01.946Z,19.36
2022-09-07T03:04:23.003Z,19.35
2022-09-07T03:04:44.053Z,19.35
2022-09-07T03:05:05.098Z,19.34
2022-09-07T03:05:26.165Z,19.35
2022-09-07T03:05:47.219Z,19.35
2022-09-07T03:06:08.269Z,19.34
2022-09-07T03:06:29.321Z,19.34
2022-09-07T03:06:50.372Z,19.34
2022-09-07T03:07:11.418Z,19.34
2022-09-07T03:07:35.764Z,19.34
2022-09-07T03:07:56.992Z,19.34
2022-09-07T03:08:18.058Z,19.33
2022-09-07T03:08:39.101Z,19.33
2022-09-07T03:09:00.151Z,19.34
2022-09-07T03:09:21.205Z,19.33
2022-09-07T03:09:42.259Z,19.34
2022-09-07T03:10:03.319Z,19.33
2022-09-07T03:10:24.368Z,19.34
2022-09-07T03:10:45.443Z,19.33
2022-09-07T03:11:06.496Z,19.34
2022-09-07T03:11:27.546Z,19.34
2022-09-07T03:11:48.595Z,19.34
2022-09-07T03:12:09.645Z,19.34
2022-09-07T03:12:30.692Z,19.33
2022-09-07T03:12:51.743Z,19.34
2022-09-07T03:13:12.799Z,19.34
2022-09-07T03:13:33.851Z,19.33
2022-09-07T03:13:54.904Z,19.34
2022-09-07T03:14:15.950Z,19.34
2022-09-07T03:14:37.001Z,19.33
2022-09-07T03:14:58.055Z,19.32
2022-09-07T03:15:19.105Z,19.32
2022-09-07T03:15:40.262Z,19.32
2022-09-07T03:16:01.462Z,19.32
2022-09-07T03:16:22.538Z,19.31
2022-09-07T03:16:43.574Z,19.30
2022-09-07T03:17:04.644Z,19.29
2022-09-07T03:17:25.678Z,19.29
2022-09-07T03:17:46.734Z,19.27
2022-09-07T03:18:07.781Z,19.28
2022-09-07T03:18:28.873Z,19.27
2022-09-07T03:18:49.937Z,19.26
2022-09-07T03:19:10.988Z,19.26
2022-09-07T03:19:32.050Z,19.25
2022-09-07T03:19:53.096Z,19.24
2022-09-07T03:20:14.154Z,19.24
2022-09-07T03:20:35.224Z,19.23
2022-09-07T03:20:56.273Z,19.22
2022-09-07T03:21:17.343Z,19.22
2022-09-07T03:21:38.405Z,19.21
2022-09-07T03:21:59.456Z,19.20
2022-09-07T03:22:20.516Z,19.19
2022-09-07T03:22:41.568Z,19.19
2022-09-07T03:23:02.621Z,19.19
2022-09-07T03:23:23.680Z,19.18
2022-09-07T03:23:47.766Z,19.18
2022-09-07T03:24:11.697Z,19.18
2022-09-07T03:24:32.750Z,19.17
2022-09-07T03:24:53.825Z,19.16
2022-09-07T03:25:14.844Z,19.16
2022-09-07T03:25:35.902Z,19.16
2022-09-07T03:25:56.952Z,19.16
2022-09-07T03:26:18.031Z,19.15
2022-09-07T03:26:39.189Z,19.15
2022-09-07T03:27:00.235Z,19.14
2022-09-07T03:27:21.289Z,19.14
2022-09-07T03:27:42.339Z,19.13
2022-09-07T03:28:03.394Z,19.12
2022-09-07T03:28:24.470Z,19.12
2022-09-07T03:28:45.525Z,19.11
2022-09-07T03:29:06.582Z,19.10
2022-09-07T03:29:27.624Z,19.10
2022-09-07T03:29:48.682Z,19.09
2022-09-07T03:30:09.727Z,19.09
2022-09-07T03:30:30.805Z,19.08
2022-09-07T03:30:51.902Z,19.08
2022-09-07T03:31:13.016Z,19.07
2022-09-07T03:31:34.138Z,19.06
2022-09-07T03:31:55.188Z,19.06
2022-09-07T03:32:16.238Z,19.06
2022-09-07T03:32:37.302Z,19.05
2022-09-07T03:32:58.344Z,19.04
2022-09-07T03:33:19.389Z,19.04
2022-09-07T03:33:40.459Z,19.04
2022-09-07T03:34:01.490Z,19.04
2022-09-07T03:34:22.543Z,19.03
2022-09-07T03:34:43.591Z,19.03
2022-09-07T03:35:04.660Z,19.03
2022-09-07T03:35:25.707Z,19.03
2022-09-07T03:35:46.762Z,19.03
2022-09-07T03:36:07.806Z,19.02
2022-09-07T03:36:28.853Z,19.02
2022-09-07T03:36:49.924Z,19.00
2022-09-07T03:37:10.978Z,19.01
2022-09-07T03:37:32.026Z,19.00
2022-09-07T03:37:53.083Z,18.99
2022-09-07T03:38:14.134Z,19.00
2022-09-07T03:38:35.245Z,18.98
2022-09-07T03:38:56.248Z,18.98
2022-09-07T03:39:17.303Z,18.98
2022-09-07T03:39:38.426Z,18.96
2022-09-07T03:39:59.508Z,18.96
2022-09-07T03:40:20.546Z,18.96
2022-09-07T03:40:41.603Z,18.94
2022-09-07T03:41:02.658Z,18.94
2022-09-07T03:41:23.728Z,18.94
2022-09-07T03:41:44.788Z,18.93
2022-09-07T03:42:05.948Z,18.92
2022-09-07T03:42:27.009Z,18.92
2022-09-07T03:42:48.063Z,18.91
2022-09-07T03:43:09.117Z,18.91
2022-09-07T03:43:30.186Z,18.90
2022-09-07T03:43:51.229Z,18.90
2022-09-07T03:44:12.282Z,18.89
2022-09-07T03:44:33.335Z,18.88
2022-09-07T03:44:54.390Z,18.88
2022-09-07T03:45:15.440Z,18.88
2022-09-07T03:45:36.493Z,18.88
2022-09-07T03:45:57.620Z,18.86
2022-09-07T03:46:18.707Z,18.86
2022-09-07T03:46:39.734Z,18.86
2022-09-07T03:47:00.786Z,18.85
2022-09-07T03:47:21.966Z,18.85
2022-09-07T03:47:43.014Z,18.84
2022-09-07T03:48:04.079Z,18.84
2022-09-07T03:48:25.184Z,18.84
2022-09-07T03:48:46.207Z,18.83
2022-09-07T03:49:07.263Z,18.84
2022-09-07T03:49:28.320Z,18.83
2022-09-07T03:49:49.388Z,18.83
2022-09-07T03:50:10.445Z,18.83
2022-09-07T03:50:31.486Z,18.82
2022-09-07T03:50:52.541Z,18.82
2022-09-07T03:51:13.592Z,18.82
2022-09-07T03:51:34.651Z,18.81
2022-09-07T03:51:55.708Z,18.80
2022-09-07T03:52:16.750Z,18.80
2022-09-07T03:52:37.824Z,18.80
2022-09-07T03:52:58.876Z,18.80
2022-09-07T03:53:19.921Z,18.80
2022-09-07T03:53:40.978Z,18.80
2022-09-07T03:54:02.033Z,18.80
2022-09-07T03:54:23.090Z,18.80
2022-09-07T03:54:44.149Z,18.79
2022-09-07T03:55:05.197Z,18.79
2022-09-07T03:55:26.251Z,18.78
2022-09-07T03:55:47.324Z,18.78
2022-09-07T03:56:08.369Z,18.78
2022-09-07T03:56:29.425Z,18.78
2022-09-07T03:56:50.479Z,18.77
2022-09-07T03:57:11.533Z,18.78
2022-09-07T03:57:32.591Z,18.77
2022-09-07T03:57:53.663Z,18.76
2022-09-07T03:58:14.725Z,18.77
2022-09-07T03:58:35.763Z,18.77
2022-09-07T03:58:56.815Z,18.76
2022-09-07T03:59:17.866Z,18.76
2022-09-07T03:59:38.914Z,18.76
2022-09-07T03:59:59.964Z,18.76
2022-09-07T04:00:21.017Z,18.76
2022-09-07T04:00:42.064Z,18.75
2022-09-07T04:01:03.159Z,18.75
2022-09-07T04:01:24.281Z,18.75
2022-09-07T04:01:45.357Z,18.75
2022-09-07T04:02:06.440Z,18.75
2022-09-07T04:02:27.545Z,18.73
2022-09-07T04:02:48.663Z,18.73
2022-09-07T04:03:09.819Z,18.73
2022-09-07T04:03:30.874Z,18.73
2022-09-07T04:03:51.939Z,18.73
2022-09-07T04:04:12.996Z,18.73
2022-09-07T04:04:34.049Z,18.73
2022-09-07T04:04:55.100Z,18.73
2022-09-07T04:05:16.158Z,18.73
2022-09-07T04:05:37.209Z,18.72
2022-09-07T04:05:58.265Z,18.73
2022-09-07T04:06:19.318Z,18.72
2022-09-07T04:06:40.371Z,18.72
2022-09-07T04:07:01.426Z,18.71
2022-09-07T04:07:22.487Z,18.71
2022-09-07T04:07:43.531Z,18.71
2022-09-07T04:08:04.587Z,18.70
2022-09-07T04:08:25.817Z,18.70
2022-09-07T04:08:46.901Z,18.70
2022-09-07T04:09:07.954Z,18.70
2022-09-07T04:09:29.008Z,18.69
2022-09-07T04:09:50.066Z,18.68
2022-09-07T04:10:11.119Z,18.68
2022-09-07T04:10:32.170Z,18.68
2022-09-07T04:10:53.223Z,18.69
2022-09-07T04:11:14.273Z,18.67
2022-09-07T04:11:35.322Z,18.67
2022-09-07T04:11:56.380Z,18.67
2022-09-07T04:12:17.437Z,18.67
2022-09-07T04:12:38.494Z,18.66
2022-09-07T04:12:59.546Z,18.66
2022-09-07T04:13:20.597Z,18.66
2022-09-07T04:13:41.775Z,18.66
2022-09-07T04:14:02.826Z,18.65
2022-09-07T04:14:23.879Z,18.65
2022-09-07T04:14:44.927Z,18.65
2022-09-07T04:15:05.983Z,18.64
2022-09-07T04:15:27.032Z,18.64
2022-09-07T04:15:52.087Z,18.63
2022-09-07T04:16:15.046Z,18.64
2022-09-07T04:16:36.194Z,18.63
2022-09-07T04:16:57.303Z,18.62
2022-09-07T04:17:18.341Z,18.62
2022-09-07T04:17:39.405Z,18.62
2022-09-07T04:18:00.452Z,18.61
2022-09-07T04:18:21.501Z,18.61
2022-09-07T04:18:42.581Z,18.60
2022-09-07T04:19:03.624Z,18.59
2022-09-07T04:19:24.676Z,18.59
2022-09-07T04:19:45.733Z,18.59
2022-09-07T04:20:06.781Z,18.58
2022-09-07T04:20:27.832Z,18.57
2022-09-07T04:20:48.889Z,18.57
2022-09-07T04:21:09.942Z,18.57
2022-09-07T04:21:30.995Z,18.57
2022-09-07T04:21:52.041Z,18.55
2022-09-07T04:22:13.087Z,18.55
2022-09-07T04:22:34.145Z,18.54
2022-09-07T04:22:55.193Z,18.54
2022-09-07T04:23:16.242Z,18.54
2022-09-07T04:23:37.296Z,18.54
2022-09-07T04:23:58.473Z,18.53
2022-09-07T04:24:19.530Z,18.53
2022-09-07T04:24:40.588Z,18.53
2022-09-07T04:25:01.643Z,18.53
2022-09-07T04:25:22.696Z,18.53
2022-09-07T04:25:43.748Z,18.52
2022-09-07T04:26:04.800Z,18.52
2022-09-07T04:26:25.862Z,18.52
2022-09-07T04:26:46.915Z,18.51
2022-09-07T04:27:07.967Z,18.52
2022-09-07T04:27:29.015Z,18.52
2022-09-07T04:27:50.067Z,18.52
2022-09-07T04:28:11.116Z,18.51
2022-09-07T04:28:32.296Z,18.51
2022-09-07T04:28:53.400Z,18.52
2022-09-07T04:29:14.468Z,18.52
2022-09-07T04:29:35.526Z,18.51
2022-09-07T04:29:56.571Z,18.50
2022-09-07T04:30:17.624Z,18.51
2022-09-07T04:30:38.738Z,18.50
2022-09-07T04:30:59.811Z,18.50
2022-09-07T04:31:20.937Z,18.51
2022-09-07T04:31:42.026Z,18.50
2022-09-07T04:32:03.072Z,18.50
2022-09-07T04:32:24.119Z,18.49
2022-09-07T04:32:45.185Z,18.49
2022-09-07T04:33:06.224Z,18.49
2022-09-07T04:33:27.274Z,18.48
2022-09-07T04:33:48.348Z,18.48
2022-09-07T04:34:09.545Z,18.48
2022-09-07T04:34:30.605Z,18.48
2022-09-07T04:34:51.646Z,18.47
2022-09-07T04:35:12.707Z,18.46
2022-09-07T04:35:33.772Z,18.47
2022-09-07T04:35:54.823Z,18.46
2022-09-07T04:36:15.875Z,18.46
2022-09-07T04:36:36.929Z,18.46
2022-09-07T04:36:57.983Z,18.46
2022-09-07T04:37:19.034Z,18.46
2022-09-07T04:37:40.088Z,18.46
2022-09-07T04:38:01.138Z,18.46
2022-09-07T04:38:22.188Z,18.46
2022-09-07T04:38:43.239Z,18.46
2022-09-07T04:39:04.297Z,18.46
2022-09-07T04:39:25.620Z,18.47
2022-09-07T04:39:46.713Z,18.46
2022-09-07T04:40:07.803Z,18.46
2022-09-07T04:40:28.846Z,18.46
2022-09-07T04:40:49.899Z,18.47
2022-09-07T04:41:10.966Z,18.47
2022-09-07T04:41:32.010Z,18.47
2022-09-07T04:41:53.071Z,18.47
2022-09-07T04:42:14.131Z,18.46
2022-09-07T04:42:35.184Z,18.46
2022-09-07T04:42:56.235Z,18.47
2022-09-07T04:43:17.292Z,18.47
2022-09-07T04:43:38.342Z,18.47
2022-09-07T04:43:59.399Z,18.47
2022-09-07T04:44:20.453Z,18.47
2022-09-07T04:44:41.528Z,18.47
2022-09-07T04:45:02.590Z,18.47
2022-09-07T04:45:23.641Z,18.47
2022-09-07T04:45:44.745Z,18.47
2022-09-07T04:46:05.867Z,18.47
2022-09-07T04:46:26.962Z,18.47
2022-09-07T04:46:48.019Z,18.48
2022-09-07T04:47:09.077Z,18.47
2022-09-07T04:47:30.132Z,18.46
2022-09-07T04:47:51.187Z,18.46
2022-09-07T04:48:12.236Z,18.45
2022-09-07T04:48:33.292Z,18.46
2022-09-07T04:48:54.347Z,18.46
2022-09-07T04:49:15.400Z,18.45
2022-09-07T04:49:36.447Z,18.45
2022-09-07T04:49:57.625Z,18.45
2022-09-07T04:50:18.676Z,18.45
2022-09-07T04:50:39.733Z,18.45
2022-09-07T04:51:04.049Z,18.45
2022-09-07T04:51:26.735Z,18.46
2022-09-07T04:51:47.789Z,18.46
2022-09-07T04:52:08.845Z,18.45
2022-09-07T04:52:29.905Z,18.45
2022-09-07T04:52:50.946Z,18.45
2022-09-07T04:53:11.998Z,18.45
2022-09-07T04:53:33.057Z,18.45
2022-09-07T04:53:54.112Z,18.45
2022-09-07T04:54:15.168Z,18.45
2022-09-07T04:54:36.229Z,18.44
2022-09-07T04:54:57.391Z,18.45
2022-09-07T04:55:18.443Z,18.46
2022-09-07T04:55:39.495Z,18.45
2022-09-07T04:56:00.546Z,18.46
2022-09-07T04:56:21.599Z,18.46
2022-09-07T04:56:42.768Z,18.46
2022-09-07T04:57:03.816Z,18.45
2022-09-07T04:57:24.867Z,18.45
2022-09-07T04:57:45.919Z,18.45
2022-09-07T04:58:06.970Z,18.46
2022-09-07T04:58:28.021Z,18.45
2022-09-07T04:58:49.067Z,18.45
2022-09-07T04:59:10.121Z,18.45
2022-09-07T04:59:31.176Z,18.46
2022-09-07T04:59:52.224Z,18.46
2022-09-07T05:00:13.601Z,18.45
2022-09-07T05:00:34.658Z,18.46
2022-09-07T05:00:55.778Z,18.45
2022-09-07T05:01:16.928Z,18.45
2022-09-07T05:01:38.040Z,18.45
2022-09-07T05:01:59.154Z,18.44
2022-09-07T05:02:20.227Z,18.45
2022-09-07T05:02:41.340Z,18.45
2022-09-07T05:03:02.389Z,18.44
2022-09-07T05:03:23.453Z,18.44
2022-09-07T05:03:44.501Z,18.43
2022-09-07T05:04:05.578Z,18.44
2022-09-07T05:04:26.614Z,18.44
2022-09-07T05:04:47.689Z,18.43
2022-09-07T05:05:08.743Z,18.44
2022-09-07T05:05:29.794Z,18.44
2022-09-07T05:05:50.838Z,18.43
2022-09-07T05:06:11.891Z,18.44
2022-09-07T05:06:32.949Z,18.44
2022-09-07T05:06:54.060Z,18.44
2022-09-07T05:07:15.064Z,18.43
2022-09-07T05:07:36.118Z,18.44
2022-09-07T05:07:57.167Z,18.44
2022-09-07T05:08:18.221Z,18.44
2022-09-07T05:08:39.274Z,18.44
2022-09-07T05:09:00.337Z,18.44
2022-09-07T05:09:21.407Z,18.45
2022-09-07T05:09:42.455Z,18.44
2022-09-07T05:10:03.507Z,18.44
2022-09-07T05:10:24.557Z,18.44
2022-09-07T05:10:45.615Z,18.44
2022-09-07T05:11:06.686Z,18.45
2022-09-07T05:11:29.451Z,18.44
2022-09-07T05:11:50.986Z,18.44
2022-09-07T05:12:12.032Z,18.45
2022-09-07T05:12:33.091Z,18.45
2022-09-07T05:12:54.145Z,18.44
2022-09-07T05:13:15.192Z,18.44
2022-09-07T05:13:36.256Z,18.44
2022-09-07T05:13:57.305Z,18.45
2022-09-07T05:14:18.384Z,18.44
2022-09-07T05:14:39.433Z,18.45
2022-09-07T05:15:00.481Z,18.44
2022-09-07T05:15:21.534Z,18.44
2022-09-07T05:15:42.589Z,18.45
2022-09-07T05:16:03.640Z,18.44
2022-09-07T05:16:24.758Z,18.44
2022-09-07T05:16:45.841Z,18.44
2022-09-07T05:17:06.891Z,18.45
2022-09-07T05:17:27.945Z,18.44
2022-09-07T05:17:49.000Z,18.44
2022-09-07T05:18:10.052Z,18.44
2022-09-07T05:18:31.333Z,18.44
2022-09-07T05:18:52.431Z,18.44
2022-09-07T05:19:13.482Z,18.44
2022-09-07T05:19:34.553Z,18.44
2022-09-07T05:19:55.606Z,18.44
2022-09-07T05:20:20.164Z,18.44
2022-09-07T05:20:41.389Z,18.44
2022-09-07T05:21:02.440Z,18.43
2022-09-07T05:21:23.497Z,18.44
2022-09-07T05:21:44.555Z,18.43
2022-09-07T05:22:05.614Z,18.43
2022-09-07T05:22:26.667Z,18.44
2022-09-07T05:22:47.725Z,18.44
2022-09-07T05:23:08.770Z,18.44
2022-09-07T05:23:29.831Z,18.44
2022-09-07T05:23:50.877Z,18.44
2022-09-07T05:24:11.935Z,18.44
2022-09-07T05:24:33.000Z,18.44
2022-09-07T05:24:54.086Z,18.44
2022-09-07T05:25:15.138Z,18.44
2022-09-07T05:25:36.198Z,18.44
2022-09-07T05:25:57.254Z,18.44
2022-09-07T05:26:18.307Z,18.44
2022-09-07T05:26:39.358Z,18.44
2022-09-07T05:27:00.416Z,18.44
2022-09-07T05:27:21.483Z,18.45
2022-09-07T05:27:42.530Z,18.44
2022-09-07T05:28:03.588Z,18.45
2022-09-07T05:28:24.639Z,18.44
2022-09-07T05:28:45.699Z,18.45
2022-09-07T05:31:36.705Z,18.45
2022-09-07T05:31:57.754Z,18.45
2022-09-07T05:32:18.810Z,18.45
2022-09-07T05:32:39.864Z,18.45
2022-09-07T05:33:00.920Z,18.45
2022-09-07T05:33:22.435Z,18.45
2022-09-07T05:34:37.420Z,18.46
2022-09-07T05:34:58.476Z,18.45
2022-09-07T05:35:19.578Z,18.45
2022-09-07T05:35:40.722Z,18.45